Time;durP1;ratioP1;P1;durP2;ratioP2;P2;SDS_P1;SDS_P2;PMS_P1;PMS_P2;Temp;Humidity;BMP_temperature;BMP_pressure;BME280_temperature;BME280_humidity;BME280_pressure;Samples;Min_cycle;Max_cycle;Signal;HPM_P1;HPM_P2
2022/05/19 00:01:15;;;;;;;7.78;5.28;;;;;;;;;;5086679;28;20031;-70
2022/05/19 00:03:41;;;;;;;6.72;5.20;;;;;;;;;;5086719;28;20039;-70
2022/05/19 00:06:08;;;;;;;6.20;4.97;;;;;;;;;;5084935;28;20077;-70
2022/05/19 00:08:35;;;;;;;10.13;6.05;;;;;;;;;;5086542;28;20032;-70
2022/05/19 00:11:02;;;;;;;8.70;5.97;;;;;;;;;;5086647;28;20017;-70
2022/05/19 00:13:29;;;;;;;12.52;5.57;;;;;;;;;;5086850;28;20040;-70
2022/05/19 00:15:56;;;;;;;9.23;5.70;;;;;;;;;;5087151;28;20012;-70
2022/05/19 00:18:22;;;;;;;8.00;5.55;;;;;;;;;;5084817;28;20032;-70
2022/05/19 00:20:48;;;;;;;13.30;5.65;;;;;;;;;;5097863;28;20047;-70
2022/05/19 00:23:15;;;;;;;10.82;5.70;;;;;;;;;;5106995;28;20030;-70
2022/05/19 00:25:41;;;;;;;9.18;5.03;;;;;;;;;;5106927;28;20035;-70
2022/05/19 00:28:07;;;;;;;9.80;5.53;;;;;;;;;;5105502;28;20046;-70
2022/05/19 00:30:34;;;;;;;8.27;5.43;;;;;;;;;;5106700;28;20111;-69
2022/05/19 00:33:00;;;;;;;11.32;5.40;;;;;;;;;;5106681;28;20019;-70
2022/05/19 00:35:26;;;;;;;7.55;4.97;;;;;;;;;;5105328;28;20032;-70
2022/05/19 00:37:53;;;;;;;8.20;5.68;;;;;;;;;;5106974;28;20038;-70
2022/05/19 00:40:20;;;;;;;20.77;5.45;;;;;;;;;;5105314;28;20039;-70
2022/05/19 00:42:46;;;;;;;8.45;5.97;;;;;;;;;;5107011;28;20039;-70
2022/05/19 00:45:23;;;;;;;11.23;5.03;;;;;;;;;;5106804;28;20038;-70
2022/05/19 00:47:50;;;;;;;10.35;4.95;;;;;;;;;;5104761;28;20023;-70
2022/05/19 00:50:24;;;;;;;11.80;5.30;;;;;;;;;;5084656;28;20024;-69
2022/05/19 00:52:52;;;;;;;11.52;5.70;;;;;;;;;;5086857;28;20020;-70
2022/05/19 00:55:20;;;;;;;8.80;5.72;;;;;;;;;;5088534;28;20049;-70
2022/05/19 00:57:58;;;;;;;7.40;5.45;;;;;;;;;;5089801;28;20032;-70
2022/05/19 01:00:24;;;;;;;8.90;5.70;;;;;;;;;;5089720;28;20117;-70
2022/05/19 01:02:55;;;;;;;12.45;5.03;;;;;;;;;;5088433;28;20028;-70
2022/05/19 01:05:42;;;;;;;9.48;5.70;;;;;;;;;;5089892;28;20115;-70
2022/05/19 01:08:19;;;;;;;9.35;4.97;;;;;;;;;;5089759;28;20730;-70
2022/05/19 01:10:45;;;;;;;8.75;4.85;;;;;;;;;;5090038;28;20059;-70
2022/05/19 01:13:13;;;;;;;7.55;4.97;;;;;;;;;;5088286;28;20016;-70
2022/05/19 01:15:50;;;;;;;10.68;5.50;;;;;;;;;;5089846;28;20053;-70
2022/05/19 01:18:16;;;;;;;8.18;4.75;;;;;;;;;;5109726;28;20032;-70
2022/05/19 01:20:43;;;;;;;5.78;4.07;;;;;;;;;;5109671;28;20150;-70
2022/05/19 01:23:32;;;;;;;9.95;4.40;;;;;;;;;;5108646;28;20031;-70
2022/05/19 01:26:21;;;;;;;6.47;4.65;;;;;;;;;;5071349;28;20044;-70
2022/05/19 01:28:48;;;;;;;6.60;4.60;;;;;;;;;;5071679;28;20510;-70
2022/05/19 01:31:29;;;;;;;6.95;4.85;;;;;;;;;;5109573;28;20024;-70
2022/05/19 01:33:55;;;;;;;8.60;4.60;;;;;;;;;;5109347;28;20027;-70
2022/05/19 01:36:21;;;;;;;6.43;3.92;;;;;;;;;;5106375;28;20328;-70
2022/05/19 01:38:50;;;;;;;9.00;4.93;;;;;;;;;;5109360;28;20028;-70
2022/05/19 01:41:19;;;;;;;10.45;4.53;;;;;;;;;;5109578;28;20077;-70
2022/05/19 01:43:58;;;;;;;10.20;4.93;;;;;;;;;;5109413;28;20042;-69
2022/05/19 01:46:38;;;;;;;10.63;5.00;;;;;;;;;;5107785;28;20020;-70
2022/05/19 01:49:24;;;;;;;8.65;4.60;;;;;;;;;;5109018;28;20031;-70
2022/05/19 01:51:59;;;;;;;9.73;4.88;;;;;;;;;;5060844;28;20462;-70
2022/05/19 01:54:28;;;;;;;5.63;4.30;;;;;;;;;;5088707;28;20020;-70
2022/05/19 01:57:03;;;;;;;5.55;3.53;;;;;;;;;;5100617;28;20479;-70
2022/05/19 01:59:29;;;;;;;5.78;4.18;;;;;;;;;;5108699;28;20032;-70
2022/05/19 02:02:01;;;;;;;6.35;3.70;;;;;;;;;;5109027;28;20035;-70
2022/05/19 02:04:30;;;;;;;5.38;3.28;;;;;;;;;;5108710;28;20035;-70
2022/05/19 02:06:58;;;;;;;8.32;3.20;;;;;;;;;;5105202;28;20028;-70
2022/05/19 02:09:36;;;;;;;3.70;2.83;;;;;;;;;;5092397;28;20028;-70
2022/05/19 02:12:03;;;;;;;4.82;2.88;;;;;;;;;;5083708;28;20039;-70
2022/05/19 02:14:31;;;;;;;9.40;3.70;;;;;;;;;;5083876;28;20080;-70
2022/05/19 02:16:57;;;;;;;8.93;3.92;;;;;;;;;;5082083;28;20044;-70
2022/05/19 02:19:26;;;;;;;5.53;3.22;;;;;;;;;;5083009;28;20050;-70
2022/05/19 02:21:53;;;;;;;6.57;3.60;;;;;;;;;;5083264;28;20182;-70
2022/05/19 02:24:22;;;;;;;7.45;3.55;;;;;;;;;;5090713;28;20122;-70
2022/05/19 02:26:48;;;;;;;4.85;3.83;;;;;;;;;;5103927;28;20027;-70
2022/05/19 02:29:22;;;;;;;7.88;2.92;;;;;;;;;;5103771;28;20031;-70
2022/05/19 02:31:49;;;;;;;6.63;3.25;;;;;;;;;;5088541;28;20052;-70
2022/05/19 02:34:16;;;;;;;4.97;3.20;;;;;;;;;;5086140;28;20039;-70
2022/05/19 02:36:42;;;;;;;9.18;3.55;;;;;;;;;;5111131;27;20027;-70
2022/05/19 02:39:09;;;;;;;4.32;3.05;;;;;;;;;;5088613;28;20039;-70
2022/05/19 02:41:35;;;;;;;4.65;3.47;;;;;;;;;;5092828;28;20020;-70
2022/05/19 02:44:01;;;;;;;6.03;3.40;;;;;;;;;;5085824;28;20044;-70
2022/05/19 02:46:27;;;;;;;5.78;3.10;;;;;;;;;;5095918;28;20028;-70
2022/05/19 02:48:54;;;;;;;5.15;3.38;;;;;;;;;;5107847;27;20027;-70
2022/05/19 02:51:20;;;;;;;5.20;3.35;;;;;;;;;;5123725;27;20380;-70
2022/05/19 02:53:46;;;;;;;13.00;3.60;;;;;;;;;;5120338;27;20036;-70
2022/05/19 02:56:12;;;;;;;5.43;3.78;;;;;;;;;;5091237;28;20032;-70
2022/05/19 02:58:39;;;;;;;5.90;3.38;;;;;;;;;;5086361;28;20081;-70
2022/05/19 03:01:07;;;;;;;7.63;3.88;;;;;;;;;;5097333;28;20427;-70
2022/05/19 03:03:33;;;;;;;5.30;3.50;;;;;;;;;;5088966;28;20024;-70
2022/05/19 03:05:59;;;;;;;7.28;3.78;;;;;;;;;;5101329;28;20031;-70
2022/05/19 03:08:26;;;;;;;6.05;3.60;;;;;;;;;;5095879;28;20028;-70
2022/05/19 03:10:52;;;;;;;5.75;3.22;;;;;;;;;;5085289;28;20024;-70
2022/05/19 03:13:19;;;;;;;6.78;3.60;;;;;;;;;;5102894;28;20031;-70
2022/05/19 03:15:45;;;;;;;4.72;3.22;;;;;;;;;;5102251;28;20027;-70
2022/05/19 03:18:12;;;;;;;5.18;3.47;;;;;;;;;;5085289;28;20024;-70
2022/05/19 03:20:38;;;;;;;5.18;3.38;;;;;;;;;;5090709;28;20064;-70
2022/05/19 03:23:04;;;;;;;7.13;3.50;;;;;;;;;;5088195;28;20028;-70
2022/05/19 03:25:30;;;;;;;9.15;4.35;;;;;;;;;;5077314;28;20165;-70
2022/05/19 03:27:56;;;;;;;7.85;3.70;;;;;;;;;;5079690;28;20032;-70
2022/05/19 03:30:23;;;;;;;5.63;3.55;;;;;;;;;;5079980;28;20024;-70
2022/05/19 03:32:49;;;;;;;6.20;3.20;;;;;;;;;;5080087;28;20028;-70
2022/05/19 03:35:16;;;;;;;5.10;2.90;;;;;;;;;;5079709;28;20034;-70
2022/05/19 03:37:42;;;;;;;5.05;3.10;;;;;;;;;;5079603;28;20388;-70
2022/05/19 03:40:08;;;;;;;7.35;3.00;;;;;;;;;;5079175;28;20488;-70
2022/05/19 03:42:34;;;;;;;3.65;2.72;;;;;;;;;;5078221;28;20028;-70
2022/05/19 03:45:00;;;;;;;6.78;3.55;;;;;;;;;;5086216;28;20027;-70
2022/05/19 03:47:27;;;;;;;4.18;2.67;;;;;;;;;;5084044;28;20051;-70
2022/05/19 03:49:53;;;;;;;4.10;2.70;;;;;;;;;;5084947;28;20035;-70
2022/05/19 03:52:19;;;;;;;5.93;2.63;;;;;;;;;;5079895;28;20039;-70
2022/05/19 03:54:45;;;;;;;6.15;2.72;;;;;;;;;;5077745;28;20715;-70
2022/05/19 03:57:13;;;;;;;5.28;3.25;;;;;;;;;;5086155;28;20050;-70
2022/05/19 03:59:39;;;;;;;5.80;3.40;;;;;;;;;;5089194;28;20035;-70
2022/05/19 04:02:05;;;;;;;8.90;3.67;;;;;;;;;;5084972;28;20058;-70
2022/05/19 04:04:31;;;;;;;6.15;3.95;;;;;;;;;;5077149;28;20542;-70
2022/05/19 04:06:57;;;;;;;6.70;4.13;;;;;;;;;;5079969;28;20146;-70
2022/05/19 04:09:24;;;;;;;8.73;4.00;;;;;;;;;;5097015;28;20055;-70
2022/05/19 04:11:50;;;;;;;6.88;4.07;;;;;;;;;;5084636;28;20375;-70
2022/05/19 04:14:16;;;;;;;8.23;4.15;;;;;;;;;;5081827;28;20491;-70
2022/05/19 04:16:42;;;;;;;7.32;4.53;;;;;;;;;;5101115;28;20085;-70
2022/05/19 04:19:09;;;;;;;6.10;4.15;;;;;;;;;;5099214;28;20060;-70
2022/05/19 04:21:35;;;;;;;10.38;4.82;;;;;;;;;;5084104;28;20020;-70
2022/05/19 04:24:01;;;;;;;6.57;4.20;;;;;;;;;;5079444;28;20020;-70
2022/05/19 04:26:27;;;;;;;6.45;4.40;;;;;;;;;;5081115;28;20577;-70
2022/05/19 04:28:53;;;;;;;10.38;4.43;;;;;;;;;;5091700;28;20050;-70
2022/05/19 04:31:19;;;;;;;7.07;3.78;;;;;;;;;;5084413;28;20173;-70
2022/05/19 04:33:45;;;;;;;8.43;4.75;;;;;;;;;;5084910;28;20012;-70
2022/05/19 04:36:12;;;;;;;7.03;4.13;;;;;;;;;;5083041;28;20078;-70
2022/05/19 04:38:38;;;;;;;4.35;3.78;;;;;;;;;;5085254;28;20032;-69
2022/05/19 04:41:05;;;;;;;6.78;3.97;;;;;;;;;;5086746;28;20024;-70
2022/05/19 04:43:31;;;;;;;7.00;4.25;;;;;;;;;;5092739;28;20084;-70
2022/05/19 04:45:57;;;;;;;11.15;4.63;;;;;;;;;;5088054;28;20024;-70
2022/05/19 04:48:24;;;;;;;6.38;4.05;;;;;;;;;;5080945;28;20032;-70
2022/05/19 04:50:51;;;;;;;5.18;4.00;;;;;;;;;;5086558;28;20083;-69
2022/05/19 04:53:18;;;;;;;6.45;4.03;;;;;;;;;;5082571;28;20111;-70
2022/05/19 04:55:44;;;;;;;7.63;4.45;;;;;;;;;;5081700;28;20549;-70
2022/05/19 04:58:11;;;;;;;8.38;3.67;;;;;;;;;;5082356;28;20036;-72
2022/05/19 05:00:37;;;;;;;10.57;4.50;;;;;;;;;;5082839;28;20097;-70
2022/05/19 05:03:04;;;;;;;9.85;3.90;;;;;;;;;;5081519;28;20024;-70
2022/05/19 05:05:30;;;;;;;6.32;3.17;;;;;;;;;;5098064;28;20034;-70
2022/05/19 05:07:56;;;;;;;9.65;4.13;;;;;;;;;;5101899;28;20027;-69
2022/05/19 05:10:22;;;;;;;8.85;4.00;;;;;;;;;;5101131;28;20019;-70
2022/05/19 05:12:49;;;;;;;7.68;3.67;;;;;;;;;;5100989;28;20023;-70
2022/05/19 05:15:15;;;;;;;13.40;4.10;;;;;;;;;;5099419;28;20080;-70
2022/05/19 05:17:41;;;;;;;7.32;4.05;;;;;;;;;;5100439;28;20024;-70
2022/05/19 05:20:09;;;;;;;7.28;3.72;;;;;;;;;;5100833;28;20062;-70
2022/05/19 05:22:36;;;;;;;10.77;4.13;;;;;;;;;;5101365;28;20020;-70
2022/05/19 05:25:04;;;;;;;9.38;3.92;;;;;;;;;;5095272;28;20059;-70
2022/05/19 05:27:30;;;;;;;11.02;5.18;;;;;;;;;;5082470;28;20669;-70
2022/05/19 05:29:56;;;;;;;12.77;5.45;;;;;;;;;;5087484;27;20028;-70
2022/05/19 05:32:22;;;;;;;9.05;4.95;;;;;;;;;;5098578;27;20036;-70
2022/05/19 05:34:48;;;;;;;12.65;5.40;;;;;;;;;;5101683;27;20023;-70
2022/05/19 05:37:14;;;;;;;7.38;4.32;;;;;;;;;;5095274;27;20556;-70
2022/05/19 05:39:41;;;;;;;10.07;4.60;;;;;;;;;;5094786;28;20031;-70
2022/05/19 05:42:07;;;;;;;6.47;3.78;;;;;;;;;;5084706;28;20019;-70
2022/05/19 05:44:34;;;;;;;7.28;4.18;;;;;;;;;;5097556;28;20035;-70
2022/05/19 05:47:00;;;;;;;7.40;3.92;;;;;;;;;;5080602;28;20088;-70
2022/05/19 05:49:26;;;;;;;5.20;3.88;;;;;;;;;;5082022;28;20032;-70
2022/05/19 05:51:52;;;;;;;7.72;4.72;;;;;;;;;;5096122;28;20029;-70
2022/05/19 05:54:18;;;;;;;7.65;5.05;;;;;;;;;;5102184;27;20030;-70
2022/05/19 05:56:45;;;;;;;10.48;7.68;;;;;;;;;;5096801;27;20061;-70
2022/05/19 05:59:11;;;;;;;9.63;4.80;;;;;;;;;;5082923;28;20039;-71
2022/05/19 06:01:37;;;;;;;6.88;4.38;;;;;;;;;;5092081;28;20037;-71
2022/05/19 06:04:03;;;;;;;9.32;4.57;;;;;;;;;;5094558;28;20032;-70
2022/05/19 06:06:29;;;;;;;11.95;5.30;;;;;;;;;;5099551;28;20024;-70
2022/05/19 06:08:56;;;;;;;8.75;4.47;;;;;;;;;;5098602;28;20130;-70
2022/05/19 06:11:22;;;;;;;9.15;4.50;;;;;;;;;;5101192;28;20031;-70
2022/05/19 06:13:50;;;;;;;8.10;4.90;;;;;;;;;;5096377;28;20024;-70
2022/05/19 06:16:16;;;;;;;13.07;5.00;;;;;;;;;;5093075;28;20035;-70
2022/05/19 06:18:42;;;;;;;8.18;5.18;;;;;;;;;;5100960;28;20031;-70
2022/05/19 06:21:08;;;;;;;12.57;4.75;;;;;;;;;;5090483;28;20054;-70
2022/05/19 06:23:35;;;;;;;10.43;5.50;;;;;;;;;;5081282;28;20020;-70
2022/05/19 06:26:01;;;;;;;8.32;4.78;;;;;;;;;;5083031;28;20039;-70
2022/05/19 06:28:27;;;;;;;11.63;5.55;;;;;;;;;;5084345;28;20065;-70
2022/05/19 06:30:54;;;;;;;11.00;5.45;;;;;;;;;;5085295;28;20020;-70
2022/05/19 06:33:22;;;;;;;9.43;5.15;;;;;;;;;;5098882;28;20754;-70
2022/05/19 06:35:48;;;;;;;10.65;5.22;;;;;;;;;;5090887;28;20121;-71
2022/05/19 06:38:15;;;;;;;8.95;5.00;;;;;;;;;;5087924;28;20028;-71
2022/05/19 06:40:41;;;;;;;12.18;5.53;;;;;;;;;;5081608;27;20135;-70
2022/05/19 06:43:08;;;;;;;9.27;5.35;;;;;;;;;;5079124;28;20373;-70
2022/05/19 06:45:35;;;;;;;9.95;6.43;;;;;;;;;;5084611;27;20054;-70
2022/05/19 06:48:01;;;;;;;11.63;5.78;;;;;;;;;;5119758;27;20031;-70
2022/05/19 06:50:27;;;;;;;10.82;5.57;;;;;;;;;;5114519;27;20031;-70
2022/05/19 06:52:57;;;;;;;9.25;6.75;;;;;;;;;;5100348;28;20031;-70
2022/05/19 06:55:24;;;;;;;8.35;5.97;;;;;;;;;;5096313;28;20045;-70
2022/05/19 06:57:50;;;;;;;9.00;5.57;;;;;;;;;;5099219;28;20028;-70
2022/05/19 07:00:18;;;;;;;7.82;5.53;;;;;;;;;;5100242;28;20040;-70
2022/05/19 07:02:45;;;;;;;9.80;5.95;;;;;;;;;;5100464;28;20024;-70
2022/05/19 07:05:12;;;;;;;11.60;5.90;;;;;;;;;;5099147;28;20031;-70
2022/05/19 07:07:38;;;;;;;10.90;6.07;;;;;;;;;;5098193;28;20036;-70
2022/05/19 07:10:05;;;;;;;11.80;6.13;;;;;;;;;;5092709;28;20024;-72
2022/05/19 07:12:33;;;;;;;19.77;8.43;;;;;;;;;;5080596;28;20021;-74
2022/05/19 07:15:00;;;;;;;13.45;7.15;;;;;;;;;;5080621;28;20032;-73
2022/05/19 07:17:26;;;;;;;12.65;7.68;;;;;;;;;;5081080;28;20103;-72
2022/05/19 07:22:37;;;;;;;18.85;6.93;;;;;;;;;;5082109;28;20120;-73
2022/05/19 07:25:06;;;;;;;15.13;7.45;;;;;;;;;;5080556;28;20619;-73
2022/05/19 07:27:33;;;;;;;10.73;6.45;;;;;;;;;;5081817;28;20392;-69
2022/05/19 07:30:01;;;;;;;16.17;7.07;;;;;;;;;;5082404;28;20568;-71
2022/05/19 07:32:27;;;;;;;9.00;6.65;;;;;;;;;;5081981;28;20278;-71
2022/05/19 07:34:56;;;;;;;8.02;6.10;;;;;;;;;;5094615;28;20118;-72
2022/05/19 07:37:23;;;;;;;14.45;7.82;;;;;;;;;;5097695;28;20038;-74
2022/05/19 07:39:49;;;;;;;9.77;6.47;;;;;;;;;;5084804;28;20024;-69
2022/05/19 07:42:15;;;;;;;9.15;5.90;;;;;;;;;;5096529;28;20221;-70
2022/05/19 07:44:41;;;;;;;9.25;6.53;;;;;;;;;;5097614;28;20027;-70
2022/05/19 07:47:08;;;;;;;10.75;6.75;;;;;;;;;;5100597;28;20028;-70
2022/05/19 07:49:34;;;;;;;16.75;7.43;;;;;;;;;;5099350;28;20032;-68
2022/05/19 07:52:01;;;;;;;13.80;6.78;;;;;;;;;;5089839;28;20593;-73
2022/05/19 07:54:27;;;;;;;12.00;6.80;;;;;;;;;;5082365;28;20036;-73
2022/05/19 07:56:54;;;;;;;10.68;6.78;;;;;;;;;;5079528;28;20530;-73
2022/05/19 07:59:20;;;;;;;9.85;6.90;;;;;;;;;;5080905;28;20032;-73
2022/05/19 08:01:47;;;;;;;14.38;7.78;;;;;;;;;;5082072;28;20027;-73
2022/05/19 08:04:14;;;;;;;17.38;8.30;;;;;;;;;;5083449;28;20047;-73
2022/05/19 08:06:40;;;;;;;13.13;7.43;;;;;;;;;;5084804;28;20916;-73
2022/05/19 08:11:52;;;;;;;11.27;6.85;;;;;;;;;;5099983;28;20043;-72
2022/05/19 08:17:04;;;;;;;13.18;7.57;;;;;;;;;;5103815;28;20038;-72
2022/05/19 08:19:30;;;;;;;9.52;7.45;;;;;;;;;;5099272;28;20047;-73
2022/05/19 08:21:57;;;;;;;10.98;7.88;;;;;;;;;;5103250;28;20515;-72
2022/05/19 08:24:25;;;;;;;12.23;7.05;;;;;;;;;;5103061;28;20024;-73
2022/05/19 08:26:51;;;;;;;10.70;7.07;;;;;;;;;;5103378;28;20021;-73
2022/05/19 08:29:19;;;;;;;10.85;7.32;;;;;;;;;;5102646;28;20039;-73
2022/05/19 08:31:45;;;;;;;12.43;6.25;;;;;;;;;;5103006;28;20179;-73
2022/05/19 08:34:13;;;;;;;10.18;6.32;;;;;;;;;;5101002;28;20028;-73
2022/05/19 08:36:39;;;;;;;12.45;7.18;;;;;;;;;;5103073;28;20027;-72
2022/05/19 08:39:05;;;;;;;6.47;5.43;;;;;;;;;;5102512;28;20023;-73
2022/05/19 08:41:35;;;;;;;13.05;6.88;;;;;;;;;;5091872;28;20093;-72
2022/05/19 08:44:03;;;;;;;10.20;6.47;;;;;;;;;;5085777;28;20559;-72
2022/05/19 08:46:31;;;;;;;11.27;7.13;;;;;;;;;;5082377;28;20020;-73
2022/05/19 08:49:00;;;;;;;13.73;7.45;;;;;;;;;;5082474;28;20028;-73
2022/05/19 08:51:30;;;;;;;11.48;6.35;;;;;;;;;;5083687;28;20032;-72
2022/05/19 08:53:58;;;;;;;13.38;7.18;;;;;;;;;;5080979;28;20242;-72
2022/05/19 08:56:28;;;;;;;12.05;6.90;;;;;;;;;;5086931;28;20039;-72
2022/05/19 08:58:57;;;;;;;10.80;6.70;;;;;;;;;;5081395;28;20145;-73
2022/05/19 09:01:27;;;;;;;9.32;6.68;;;;;;;;;;5082295;28;20476;-73
2022/05/19 09:03:53;;;;;;;9.80;5.63;;;;;;;;;;5083496;28;20039;-73
2022/05/19 09:06:19;;;;;;;13.43;6.38;;;;;;;;;;5082276;28;20020;-73
2022/05/19 09:08:48;;;;;;;16.13;7.10;;;;;;;;;;5080222;28;20042;-73
2022/05/19 09:11:14;;;;;;;14.40;6.50;;;;;;;;;;5081809;28;20215;-73
2022/05/19 09:13:53;;;;;;;12.98;7.30;;;;;;;;;;5080566;28;20030;-72
2022/05/19 09:16:24;;;;;;;11.38;7.22;;;;;;;;;;5082062;28;20028;-72
2022/05/19 09:18:58;;;;;;;11.82;7.47;;;;;;;;;;5081174;28;20056;-72
2022/05/19 09:21:24;;;;;;;14.07;6.85;;;;;;;;;;5081305;28;20028;-73
2022/05/19 09:23:50;;;;;;;9.35;6.68;;;;;;;;;;5081276;28;20503;-72
2022/05/19 09:26:16;;;;;;;9.98;6.32;;;;;;;;;;5081568;28;20032;-72
2022/05/19 09:28:45;;;;;;;10.10;6.25;;;;;;;;;;5081420;28;20035;-73
2022/05/19 09:31:13;;;;;;;9.32;6.10;;;;;;;;;;5079113;28;20028;-73
2022/05/19 09:33:43;;;;;;;9.55;6.38;;;;;;;;;;5080774;28;20210;-73
2022/05/19 09:36:11;;;;;;;8.68;6.13;;;;;;;;;;5081384;28;20071;-72
2022/05/19 09:38:47;;;;;;;10.52;6.15;;;;;;;;;;5081012;28;20073;-70
2022/05/19 09:41:32;;;;;;;10.75;5.85;;;;;;;;;;5082000;28;20581;-70
2022/05/19 09:43:59;;;;;;;10.52;6.47;;;;;;;;;;5080068;28;20036;-71
2022/05/19 09:46:33;;;;;;;11.60;6.28;;;;;;;;;;5085798;28;20058;-71
2022/05/19 09:49:01;;;;;;;9.18;6.00;;;;;;;;;;5100884;28;20524;-71
2022/05/19 09:51:31;;;;;;;15.57;6.03;;;;;;;;;;5101851;27;20035;-70
2022/05/19 09:53:59;;;;;;;9.35;5.57;;;;;;;;;;5100325;28;20027;-70
2022/05/19 09:56:26;;;;;;;8.95;6.13;;;;;;;;;;5101940;28;20051;-70
2022/05/19 09:59:03;;;;;;;11.38;6.65;;;;;;;;;;5101072;28;20053;-71
2022/05/19 10:01:30;;;;;;;10.35;5.88;;;;;;;;;;5101656;28;20031;-72
2022/05/19 10:04:01;;;;;;;8.73;5.40;;;;;;;;;;5084749;28;20040;-72
2022/05/19 10:06:46;;;;;;;8.90;5.55;;;;;;;;;;5079988;28;20032;-73
2022/05/19 10:09:16;;;;;;;9.45;5.85;;;;;;;;;;5080443;28;20107;-73
2022/05/19 10:12:01;;;;;;;8.98;5.53;;;;;;;;;;5080419;28;20020;-73
2022/05/19 10:14:29;;;;;;;10.02;5.95;;;;;;;;;;5078347;28;20566;-70
2022/05/19 10:17:19;;;;;;;11.55;5.93;;;;;;;;;;5079833;28;20035;-70
2022/05/19 10:19:45;;;;;;;8.27;5.78;;;;;;;;;;5056605;28;20097;-70
2022/05/19 10:22:11;;;;;;;9.30;5.72;;;;;;;;;;5100617;28;20371;-70
2022/05/19 10:24:52;;;;;;;6.72;5.60;;;;;;;;;;5099411;28;20038;-70
2022/05/19 10:33:43;;;;;;;15.20;5.65;;;;;;;;;;5096262;28;20046;-70
2022/05/19 10:36:28;;;;;;;9.65;5.75;;;;;;;;;;5100162;28;20488;-70
2022/05/19 10:39:14;;;;;;;8.40;5.70;;;;;;;;;;5099975;28;20047;-70
2022/05/19 10:41:43;;;;;;;12.30;5.85;;;;;;;;;;5099038;28;20043;-70
2022/05/19 10:44:09;;;;;;;10.43;5.47;;;;;;;;;;5100240;28;20031;-71
2022/05/19 10:46:43;;;;;;;9.32;5.88;;;;;;;;;;5097113;28;20031;-71
2022/05/19 10:49:27;;;;;;;11.00;6.03;;;;;;;;;;5100554;28;20028;-70
2022/05/19 10:51:56;;;;;;;12.45;5.70;;;;;;;;;;5100741;28;20268;-70
2022/05/19 10:54:32;;;;;;;10.63;5.75;;;;;;;;;;5100872;28;20155;-70
2022/05/19 10:57:01;;;;;;;9.57;6.32;;;;;;;;;;5100619;28;20040;-70
2022/05/19 10:59:30;;;;;;;11.10;5.95;;;;;;;;;;5098649;28;20180;-70
2022/05/19 11:01:56;;;;;;;9.20;5.40;;;;;;;;;;5100277;28;20031;-71
2022/05/19 11:04:22;;;;;;;8.77;5.25;;;;;;;;;;5100679;28;20527;-71
2022/05/19 11:07:07;;;;;;;9.13;5.55;;;;;;;;;;5098898;28;20072;-70
2022/05/19 11:09:49;;;;;;;15.07;6.35;;;;;;;;;;5100278;28;20516;-70
2022/05/19 11:12:21;;;;;;;7.80;5.53;;;;;;;;;;5099510;28;20019;-71
2022/05/19 11:14:57;;;;;;;13.55;5.82;;;;;;;;;;5096790;28;20023;-70
2022/05/19 11:17:30;;;;;;;12.02;6.47;;;;;;;;;;5079972;28;20399;-71
2022/05/19 11:20:01;;;;;;;9.00;5.10;;;;;;;;;;5078032;28;20055;-71
2022/05/19 11:22:30;;;;;;;8.43;5.55;;;;;;;;;;5097288;28;20061;-71
2022/05/19 11:27:52;;;;;;;15.05;5.65;;;;;;;;;;5100048;28;20031;-71
2022/05/19 11:30:23;;;;;;;10.40;5.55;;;;;;;;;;5099683;28;20036;-70
2022/05/19 11:32:52;;;;;;;10.30;5.63;;;;;;;;;;5097927;28;20028;-71
2022/05/19 11:35:24;;;;;;;9.80;5.50;;;;;;;;;;5099248;28;20031;-70
2022/05/19 11:38:09;;;;;;;7.75;4.97;;;;;;;;;;5098795;28;20043;-70
2022/05/19 11:41:07;;;;;;;11.13;5.53;;;;;;;;;;5099648;28;20039;-71
2022/05/19 11:43:39;;;;;;;10.80;5.28;;;;;;;;;;5052720;28;20739;-71
2022/05/19 11:46:10;;;;;;;8.15;5.15;;;;;;;;;;5099283;28;20749;-71
2022/05/19 11:57:31;;;;;;;7.65;4.80;;;;;;;;;;5079487;28;20039;-71
2022/05/19 12:00:00;;;;;;;7.25;4.93;;;;;;;;;;5077546;28;20036;-70
2022/05/19 12:02:29;;;;;;;10.80;5.43;;;;;;;;;;5079322;28;20020;-71
2022/05/19 12:05:09;;;;;;;5.82;4.68;;;;;;;;;;5079450;28;20032;-70
2022/05/19 12:07:45;;;;;;;7.30;5.10;;;;;;;;;;5079558;28;20035;-70
2022/05/19 12:10:15;;;;;;;10.05;4.97;;;;;;;;;;5079048;28;20024;-71
2022/05/19 12:12:44;;;;;;;7.63;4.93;;;;;;;;;;5079025;28;20055;-71
2022/05/19 12:15:18;;;;;;;9.43;4.85;;;;;;;;;;5086434;28;20383;-70
2022/05/19 12:17:46;;;;;;;10.55;5.55;;;;;;;;;;5099288;28;20028;-71
2022/05/19 12:20:31;;;;;;;7.35;5.25;;;;;;;;;;5097433;28;20050;-71
2022/05/19 12:23:15;;;;;;;11.55;5.82;;;;;;;;;;5097170;28;20036;-71
2022/05/19 12:25:43;;;;;;;8.55;5.35;;;;;;;;;;5099021;28;20035;-71
2022/05/19 12:28:19;;;;;;;9.88;5.22;;;;;;;;;;5098913;28;20035;-71
2022/05/19 12:33:50;;;;;;;11.52;5.32;;;;;;;;;;5097671;28;20035;-71
2022/05/19 12:36:37;;;;;;;6.35;5.38;;;;;;;;;;5098984;28;20035;-70
2022/05/19 12:39:23;;;;;;;8.45;5.25;;;;;;;;;;5097133;28;20070;-70
2022/05/19 12:41:49;;;;;;;8.32;5.60;;;;;;;;;;5095457;28;20848;-70
2022/05/19 12:44:34;;;;;;;11.75;5.45;;;;;;;;;;5099641;28;20030;-70
2022/05/19 12:47:20;;;;;;;9.93;5.65;;;;;;;;;;5098776;28;20508;-71
2022/05/19 12:50:06;;;;;;;9.52;5.60;;;;;;;;;;5100186;28;20118;-70
2022/05/19 12:52:52;;;;;;;8.18;5.60;;;;;;;;;;5102922;28;20036;-71
2022/05/19 12:55:25;;;;;;;8.50;5.55;;;;;;;;;;5101626;28;20040;-70
2022/05/19 12:57:55;;;;;;;8.43;5.25;;;;;;;;;;5099346;28;20057;-71
2022/05/19 13:00:22;;;;;;;8.32;5.90;;;;;;;;;;5102244;28;20038;-71
2022/05/19 13:02:51;;;;;;;6.88;5.00;;;;;;;;;;5101001;28;20076;-70
2022/05/19 13:05:21;;;;;;;9.82;6.20;;;;;;;;;;5102603;28;20028;-71
2022/05/19 13:07:51;;;;;;;12.30;6.30;;;;;;;;;;5101320;28;20031;-71
2022/05/19 13:10:25;;;;;;;10.55;5.93;;;;;;;;;;5102358;28;20027;-72
2022/05/19 13:12:55;;;;;;;9.75;5.63;;;;;;;;;;5102400;28;20030;-71
2022/05/19 13:15:25;;;;;;;11.63;5.80;;;;;;;;;;5100863;28;20032;-71
2022/05/19 13:17:53;;;;;;;9.95;5.93;;;;;;;;;;5102735;28;20053;-71
2022/05/19 13:20:21;;;;;;;12.95;5.82;;;;;;;;;;5101631;28;20066;-71
2022/05/19 13:22:49;;;;;;;6.63;5.85;;;;;;;;;;5102280;28;20027;-71
2022/05/19 13:25:16;;;;;;;10.23;6.38;;;;;;;;;;5095547;28;20116;-71
2022/05/19 13:30:27;;;;;;;7.43;6.07;;;;;;;;;;5081673;28;20462;-71
2022/05/19 13:33:04;;;;;;;8.23;6.32;;;;;;;;;;5081724;28;20035;-70
2022/05/19 13:35:30;;;;;;;9.48;6.82;;;;;;;;;;5081165;28;20028;-71
2022/05/19 13:37:57;;;;;;;7.63;5.55;;;;;;;;;;5080870;28;20032;-71
2022/05/19 13:40:27;;;;;;;9.77;5.60;;;;;;;;;;5079106;28;20051;-71
2022/05/19 13:42:58;;;;;;;10.95;6.38;;;;;;;;;;5078515;28;20135;-71
2022/05/19 13:45:26;;;;;;;11.60;6.25;;;;;;;;;;5081119;28;20051;-71
2022/05/19 13:47:52;;;;;;;12.43;6.57;;;;;;;;;;5081559;28;20039;-71
2022/05/19 13:50:25;;;;;;;11.27;6.50;;;;;;;;;;5081804;28;20039;-70
2022/05/19 13:52:58;;;;;;;9.48;6.30;;;;;;;;;;5081968;28;20027;-71
2022/05/19 13:55:28;;;;;;;10.10;6.10;;;;;;;;;;5079770;28;20024;-71
2022/05/19 13:57:55;;;;;;;7.90;7.10;;;;;;;;;;5079874;28;20023;-71
2022/05/19 14:00:23;;;;;;;12.90;6.07;;;;;;;;;;5079143;28;20067;-71
2022/05/19 14:02:49;;;;;;;11.02;6.30;;;;;;;;;;5077950;28;20109;-71
2022/05/19 14:05:35;;;;;;;7.07;6.35;;;;;;;;;;5079153;28;20031;-71
2022/05/19 14:08:04;;;;;;;12.00;7.38;;;;;;;;;;5079811;28;20032;-71
2022/05/19 14:10:36;;;;;;;9.88;7.20;;;;;;;;;;5079356;28;20071;-70
2022/05/19 14:13:03;;;;;;;8.00;6.90;;;;;;;;;;5081019;28;20036;-71
2022/05/19 14:15:34;;;;;;;13.13;7.85;;;;;;;;;;5080760;28;20028;-70
2022/05/19 14:18:01;;;;;;;11.27;7.25;;;;;;;;;;5095516;28;20388;-70
2022/05/19 14:20:34;;;;;;;9.02;7.03;;;;;;;;;;5099264;28;20443;-71
2022/05/19 14:23:00;;;;;;;12.00;7.43;;;;;;;;;;5096977;28;20059;-70
2022/05/19 14:25:28;;;;;;;7.97;6.13;;;;;;;;;;5099208;28;20102;-71
2022/05/19 14:28:01;;;;;;;8.50;6.45;;;;;;;;;;5101132;28;20088;-71
2022/05/19 14:30:29;;;;;;;9.05;6.45;;;;;;;;;;5100961;28;20023;-71
2022/05/19 14:33:01;;;;;;;11.00;6.82;;;;;;;;;;5100698;28;20026;-70
2022/05/19 14:35:39;;;;;;;10.88;6.10;;;;;;;;;;5100090;28;20030;-71
2022/05/19 14:38:13;;;;;;;9.23;6.25;;;;;;;;;;5099028;28;20028;-70
2022/05/19 14:43:28;;;;;;;9.68;5.53;;;;;;;;;;5098917;28;20556;-71
2022/05/19 14:45:56;;;;;;;12.18;6.22;;;;;;;;;;5100730;28;20019;-70
2022/05/19 14:48:38;;;;;;;6.88;6.13;;;;;;;;;;5081906;28;20032;-70
2022/05/19 14:51:07;;;;;;;12.55;6.63;;;;;;;;;;5078855;28;20504;-71
2022/05/19 14:53:35;;;;;;;11.48;5.78;;;;;;;;;;5080370;28;20704;-70
2022/05/19 14:56:09;;;;;;;11.02;6.53;;;;;;;;;;5080449;28;20119;-70
2022/05/19 14:58:38;;;;;;;7.80;6.10;;;;;;;;;;5078051;28;20020;-70
2022/05/19 15:01:05;;;;;;;9.65;6.00;;;;;;;;;;5079436;28;20047;-71
2022/05/19 15:03:31;;;;;;;12.38;6.40;;;;;;;;;;5080037;28;20464;-71
2022/05/19 15:05:57;;;;;;;16.55;5.93;;;;;;;;;;5095541;28;20066;-72
2022/05/19 15:08:25;;;;;;;19.67;6.60;;;;;;;;;;5087770;28;20039;-73
2022/05/19 15:10:51;;;;;;;6.57;5.28;;;;;;;;;;5082571;28;20598;-73
2022/05/19 15:13:17;;;;;;;8.70;6.45;;;;;;;;;;5087817;27;20028;-73
2022/05/19 15:15:43;;;;;;;9.48;5.85;;;;;;;;;;5090686;28;20024;-72
2022/05/19 15:18:10;;;;;;;11.25;6.30;;;;;;;;;;5080903;28;20086;-71
2022/05/19 15:20:38;;;;;;;11.43;5.95;;;;;;;;;;5083648;28;20078;-72
2022/05/19 15:23:05;;;;;;;8.45;5.72;;;;;;;;;;5106350;27;20946;-72
2022/05/19 15:25:31;;;;;;;12.00;6.00;;;;;;;;;;5089891;28;20039;-72